createdAt,value
2024-03-07T00:00:30.191Z,6.55
2024-03-07T00:02:57.041Z,5.28
2024-03-07T00:05:26.740Z,3.97
2024-03-07T00:07:54.598Z,6.90
2024-03-07T00:10:24.384Z,6.95
2024-03-07T00:12:51.292Z,4.10
2024-03-07T00:15:19.017Z,5.15
2024-03-07T00:17:46.016Z,3.35
2024-03-07T00:20:16.884Z,6.32
2024-03-07T00:22:44.417Z,8.10
2024-03-07T00:25:12.522Z,4.50
2024-03-07T00:27:42.414Z,4.82
2024-03-07T00:30:14.663Z,5.88
2024-03-07T00:32:41.659Z,4.50
2024-03-07T00:35:12.061Z,6.55
2024-03-07T00:37:38.868Z,4.55
2024-03-07T00:40:07.462Z,2.00
2024-03-07T00:42:35.177Z,4.15
2024-03-07T00:45:02.458Z,5.25
2024-03-07T00:47:29.250Z,5.20
2024-03-07T00:49:56.794Z,4.40
2024-03-07T00:52:23.490Z,4.63
2024-03-07T00:54:50.955Z,4.93
2024-03-07T00:57:17.669Z,3.65
2024-03-07T00:59:44.392Z,5.30
2024-03-07T01:02:11.199Z,5.32
2024-03-07T01:04:37.935Z,4.38
2024-03-07T01:07:05.015Z,6.70
2024-03-07T01:09:31.787Z,5.20
2024-03-07T01:12:01.017Z,6.57
2024-03-07T01:14:28.384Z,5.80
2024-03-07T01:16:55.322Z,7.18
2024-03-07T01:19:22.105Z,6.32
2024-03-07T01:21:49.480Z,4.75
2024-03-07T01:24:19.475Z,7.32
2024-03-07T01:26:46.328Z,5.22
2024-03-07T01:29:13.391Z,4.85
2024-03-07T01:31:40.129Z,6.50
2024-03-07T01:34:06.767Z,4.90
2024-03-07T01:36:33.418Z,3.50
2024-03-07T01:39:00.168Z,5.03
2024-03-07T01:41:26.887Z,5.05
2024-03-07T01:43:53.609Z,4.88
2024-03-07T01:46:21.035Z,5.30
2024-03-07T01:48:49.214Z,5.38
2024-03-07T01:51:16.561Z,5.88
2024-03-07T01:53:43.793Z,4.65
2024-03-07T01:56:11.052Z,4.22
2024-03-07T01:58:38.066Z,3.30
2024-03-07T02:01:04.841Z,4.55
2024-03-07T02:03:31.641Z,4.40
2024-03-07T02:05:58.441Z,6.43
2024-03-07T02:08:25.302Z,3.55
2024-03-07T02:10:52.044Z,4.93
2024-03-07T02:13:19.469Z,4.65
2024-03-07T02:15:46.418Z,6.07
2024-03-07T02:18:13.623Z,4.20
2024-03-07T02:20:45.328Z,6.32
2024-03-07T02:23:12.121Z,3.78
2024-03-07T02:25:39.053Z,8.05
2024-03-07T02:28:06.223Z,5.10
2024-03-07T02:30:33.444Z,4.28
2024-03-07T02:33:07.536Z,4.20
2024-03-07T02:35:36.544Z,4.72
2024-03-07T02:38:04.612Z,5.38
2024-03-07T02:40:31.761Z,4.63
2024-03-07T02:42:59.175Z,2.90
2024-03-07T02:45:26.351Z,5.45
2024-03-07T02:47:55.420Z,3.90
2024-03-07T02:50:25.804Z,2.63
2024-03-07T02:52:53.936Z,4.78
2024-03-07T02:55:21.617Z,4.32
2024-03-07T02:57:48.423Z,4.38
2024-03-07T03:00:22.246Z,5.30
2024-03-07T03:02:50.466Z,5.07
2024-03-07T03:05:17.708Z,3.35
2024-03-07T03:07:53.863Z,6.45
2024-03-07T03:10:27.356Z,2.30
2024-03-07T03:12:55.265Z,5.55
2024-03-07T03:15:22.281Z,4.63
2024-03-07T03:17:49.259Z,5.13
2024-03-07T03:20:25.673Z,4.97
2024-03-07T03:25:25.821Z,4.30
2024-03-07T03:27:52.800Z,4.88
2024-03-07T03:30:19.649Z,3.55
2024-03-07T03:32:47.996Z,3.53
2024-03-07T03:35:17.692Z,7.05
2024-03-07T03:37:44.489Z,3.63
2024-03-07T03:40:11.977Z,3.78
2024-03-07T03:42:39.289Z,5.55
2024-03-07T03:45:07.361Z,6.40
2024-03-07T03:47:38.857Z,5.47
2024-03-07T03:50:07.325Z,4.18
2024-03-07T03:52:36.176Z,5.88
2024-03-07T03:55:04.139Z,4.05
2024-03-07T03:57:31.842Z,4.10
2024-03-07T03:59:59.022Z,3.15
2024-03-07T04:02:26.368Z,5.05
2024-03-07T04:04:53.836Z,5.50
2024-03-07T04:07:20.598Z,3.75
2024-03-07T04:09:47.487Z,4.80
2024-03-07T04:12:14.986Z,9.70
2024-03-07T04:14:42.145Z,8.65
2024-03-07T04:17:09.712Z,5.55
2024-03-07T04:19:36.957Z,5.45
2024-03-07T04:22:04.527Z,3.05
2024-03-07T04:24:33.851Z,6.63
2024-03-07T04:27:01.722Z,4.18
2024-03-07T04:29:28.621Z,5.13
2024-03-07T04:31:55.355Z,6.60
2024-03-07T04:34:22.021Z,4.97
2024-03-07T04:36:49.075Z,7.07
2024-03-07T04:39:25.604Z,5.00
2024-03-07T04:41:56.973Z,4.00
2024-03-07T04:44:26.223Z,5.40
2024-03-07T04:46:56.744Z,6.07
2024-03-07T04:49:25.137Z,3.58
2024-03-07T04:51:55.356Z,4.65
2024-03-07T04:54:23.314Z,5.68
2024-03-07T04:56:52.559Z,4.43
2024-03-07T04:59:20.676Z,3.97
2024-03-07T05:01:48.340Z,4.15
2024-03-07T05:04:16.604Z,3.92
2024-03-07T05:06:44.485Z,4.82
2024-03-07T05:09:24.075Z,5.47
2024-03-07T05:11:54.166Z,4.05
2024-03-07T05:14:21.671Z,3.90
2024-03-07T05:17:06.308Z,4.32
2024-03-07T05:19:34.189Z,5.35
2024-03-07T05:22:01.443Z,3.60
2024-03-07T05:24:28.361Z,4.43
2024-03-07T05:26:55.423Z,4.40
2024-03-07T05:29:22.733Z,4.28
2024-03-07T05:31:49.576Z,5.63
2024-03-07T05:34:24.695Z,6.05
2024-03-07T05:36:52.392Z,4.25
2024-03-07T05:39:19.453Z,2.42
2024-03-07T05:41:47.101Z,3.63
2024-03-07T05:44:14.363Z,5.55
2024-03-07T05:46:47.032Z,3.28
2024-03-07T05:49:14.780Z,2.25
2024-03-07T05:51:46.476Z,2.75
2024-03-07T05:54:14.029Z,4.95
2024-03-07T05:56:41.792Z,3.97
2024-03-07T05:59:10.832Z,4.53
2024-03-07T06:01:38.042Z,2.67
2024-03-07T06:04:07.035Z,3.38
2024-03-07T06:06:35.010Z,5.93
2024-03-07T06:09:09.732Z,4.22
2024-03-07T06:11:39.946Z,4.55
2024-03-07T06:14:08.210Z,5.03
2024-03-07T06:16:40.277Z,4.05
2024-03-07T06:19:10.539Z,2.95
2024-03-07T06:21:40.692Z,6.05
2024-03-07T06:24:09.671Z,4.90
2024-03-07T06:26:38.850Z,4.65
2024-03-07T06:29:14.945Z,4.15
2024-03-07T06:31:44.825Z,3.65
2024-03-07T06:34:11.603Z,4.82
2024-03-07T06:36:38.852Z,4.55
2024-03-07T06:39:08.708Z,3.65
2024-03-07T06:41:35.711Z,6.28
2024-03-07T06:44:03.105Z,5.35
2024-03-07T06:46:30.587Z,5.97
2024-03-07T06:48:57.649Z,4.43
2024-03-07T06:51:26.169Z,3.80
2024-03-07T06:53:53.274Z,6.10
2024-03-07T06:56:20.316Z,5.55
2024-03-07T06:58:47.440Z,6.70
2024-03-07T07:01:16.823Z,4.45
2024-03-07T07:03:49.033Z,6.57
2024-03-07T07:06:16.369Z,5.15
2024-03-07T07:08:43.503Z,7.07
2024-03-07T07:11:12.992Z,5.30
2024-03-07T07:13:40.199Z,6.43
2024-03-07T07:16:07.245Z,6.32
2024-03-07T07:18:34.808Z,5.65
2024-03-07T07:21:04.487Z,9.07
2024-03-07T07:23:31.536Z,3.17
2024-03-07T07:25:58.675Z,5.82
2024-03-07T07:28:25.636Z,5.90
2024-03-07T07:30:52.821Z,5.03
2024-03-07T07:33:19.935Z,3.03
2024-03-07T07:35:46.913Z,4.85
2024-03-07T07:38:16.460Z,4.78
2024-03-07T07:40:44.350Z,5.13
2024-03-07T07:43:19.507Z,7.05
2024-03-07T07:45:52.381Z,6.68
2024-03-07T07:48:20.816Z,4.38
2024-03-07T07:50:52.129Z,6.22
2024-03-07T07:53:19.053Z,6.25
2024-03-07T07:55:47.763Z,6.20
2024-03-07T07:58:14.689Z,6.13
2024-03-07T08:00:44.579Z,5.97
2024-03-07T08:03:11.914Z,6.97
2024-03-07T08:05:39.502Z,5.50
2024-03-07T08:08:08.755Z,4.47
2024-03-07T08:10:37.348Z,6.72
2024-03-07T08:13:07.274Z,6.82
2024-03-07T08:15:34.440Z,4.72
2024-03-07T08:18:01.904Z,4.43
2024-03-07T08:20:30.278Z,6.10
2024-03-07T08:22:57.740Z,5.07
2024-03-07T08:25:26.388Z,6.20
2024-03-07T08:27:54.964Z,4.95
2024-03-07T08:30:22.078Z,5.75
2024-03-07T08:32:53.316Z,7.35
2024-03-07T08:35:20.646Z,7.22
2024-03-07T08:37:54.974Z,6.03
2024-03-07T08:40:28.065Z,6.57
2024-03-07T08:42:57.405Z,5.53
2024-03-07T08:45:25.234Z,6.50
2024-03-07T08:47:58.848Z,7.88
2024-03-07T08:50:28.395Z,10.43
2024-03-07T08:52:55.469Z,6.13
2024-03-07T08:55:24.442Z,8.07
2024-03-07T08:57:52.372Z,6.93
2024-03-07T09:00:27.524Z,32.78
2024-03-07T09:03:00.321Z,6.80
2024-03-07T09:05:28.780Z,5.93
2024-03-07T09:07:56.120Z,6.75
2024-03-07T09:10:22.973Z,6.85
2024-03-07T09:12:53.481Z,7.13
2024-03-07T09:15:23.432Z,5.97
2024-03-07T09:17:50.797Z,7.28
2024-03-07T09:20:17.863Z,6.45
2024-03-07T09:22:45.979Z,6.57
2024-03-07T09:25:14.690Z,5.30
2024-03-07T09:27:42.320Z,9.02
2024-03-07T09:30:13.393Z,4.88
2024-03-07T09:32:42.295Z,3.42
2024-03-07T09:35:13.497Z,10.18
2024-03-07T09:37:44.625Z,7.30
2024-03-07T09:40:16.612Z,7.72
2024-03-07T09:42:53.995Z,9.25
2024-03-07T09:45:22.346Z,6.70
2024-03-07T09:47:52.015Z,6.72
2024-03-07T09:50:20.873Z,5.95
2024-03-07T09:52:50.701Z,7.43
2024-03-07T09:55:26.564Z,8.20
2024-03-07T09:57:57.393Z,7.82
2024-03-07T10:00:29.667Z,6.80
2024-03-07T10:03:06.562Z,6.68
2024-03-07T10:05:33.876Z,5.72
2024-03-07T10:08:02.466Z,6.30
2024-03-07T10:10:31.501Z,4.85
2024-03-07T10:12:59.942Z,5.88
2024-03-07T10:15:34.390Z,5.85
2024-03-07T10:18:02.704Z,5.10
2024-03-07T10:20:30.443Z,5.13
2024-03-07T10:23:01.715Z,4.82
2024-03-07T10:25:30.026Z,6.50
2024-03-07T10:27:58.949Z,6.05
2024-03-07T10:30:26.672Z,3.40
2024-03-07T10:32:56.967Z,3.97
2024-03-07T10:35:27.261Z,6.45
2024-03-07T10:37:55.359Z,4.72
2024-03-07T10:40:23.952Z,6.70
2024-03-07T10:42:53.676Z,7.25
2024-03-07T10:45:24.911Z,6.50
2024-03-07T10:47:58.893Z,4.55
2024-03-07T10:50:49.898Z,4.25
2024-03-07T10:53:26.997Z,4.22
2024-03-07T10:56:00.348Z,3.97
2024-03-07T10:58:48.704Z,4.65
2024-03-07T11:01:16.065Z,19.88
2024-03-07T11:03:43.817Z,4.95
2024-03-07T11:06:12.961Z,4.63
2024-03-07T11:08:41.221Z,3.38
2024-03-07T11:11:08.261Z,4.45
2024-03-07T11:13:35.586Z,5.90
2024-03-07T11:16:04.338Z,4.82
2024-03-07T11:18:31.277Z,4.50
2024-03-07T11:20:59.361Z,7.30
2024-03-07T11:23:30.886Z,5.75
2024-03-07T11:26:09.167Z,22.27
2024-03-07T11:28:41.618Z,5.55
2024-03-07T11:31:28.325Z,7.10
2024-03-07T11:34:20.136Z,4.32
2024-03-07T11:36:48.157Z,5.43
2024-03-07T11:39:43.913Z,6.80
2024-03-07T11:42:36.670Z,5.82
2024-03-07T11:45:07.462Z,5.07
2024-03-07T11:47:40.029Z,3.53
2024-03-07T11:50:12.666Z,5.68
2024-03-07T11:52:43.240Z,5.95
2024-03-07T11:55:10.342Z,8.63
2024-03-07T11:57:37.521Z,9.73
2024-03-07T12:00:12.304Z,7.05
2024-03-07T12:02:40.434Z,24.25
2024-03-07T12:05:08.570Z,27.35
2024-03-07T12:07:35.474Z,27.50
2024-03-07T12:10:06.984Z,27.20
2024-03-07T12:12:34.592Z,30.52
2024-03-07T12:15:03.616Z,7.57
2024-03-07T12:17:33.170Z,7.90
2024-03-07T12:20:03.934Z,7.90
2024-03-07T12:22:31.953Z,8.68
2024-03-07T12:25:10.026Z,8.02
2024-03-07T12:27:39.875Z,8.55
2024-03-07T12:30:17.784Z,6.60
2024-03-07T12:32:51.172Z,10.25
2024-03-07T12:35:19.387Z,7.57
2024-03-07T12:37:47.557Z,7.53
2024-03-07T12:40:20.630Z,6.50
2024-03-07T12:42:49.300Z,9.15
2024-03-07T12:45:20.026Z,34.58
2024-03-07T12:47:55.399Z,7.20
2024-03-07T12:50:22.728Z,10.27
2024-03-07T12:52:53.452Z,8.30
2024-03-07T12:55:22.636Z,11.77
2024-03-07T12:57:51.297Z,10.15
2024-03-07T13:00:21.886Z,12.38
2024-03-07T13:02:49.957Z,9.18
2024-03-07T13:05:22.565Z,39.42
2024-03-07T13:07:50.083Z,37.85
2024-03-07T13:10:17.201Z,39.47
2024-03-07T13:12:46.880Z,38.63
2024-03-07T13:15:14.074Z,40.60
2024-03-07T13:17:41.297Z,38.53
2024-03-07T13:20:15.296Z,39.08
2024-03-07T13:22:48.307Z,10.30
2024-03-07T13:25:20.862Z,11.80
2024-03-07T13:27:58.559Z,14.50
2024-03-07T13:30:28.631Z,10.35
2024-03-07T13:33:00.316Z,10.52
2024-03-07T13:35:28.624Z,12.43
2024-03-07T13:37:56.798Z,10.00
2024-03-07T13:40:27.744Z,9.23
2024-03-07T13:42:59.264Z,11.60
2024-03-07T13:45:32.833Z,13.65
2024-03-07T13:48:01.046Z,8.75
2024-03-07T13:50:47.305Z,9.20
2024-03-07T13:53:30.324Z,38.20
2024-03-07T13:56:25.240Z,11.40
2024-03-07T13:59:10.793Z,10.70
2024-03-07T14:01:55.609Z,36.20
2024-03-07T14:04:53.756Z,12.30
2024-03-07T14:07:51.794Z,7.95
2024-03-07T14:10:57.402Z,5.55
2024-03-07T14:13:55.463Z,35.67
2024-03-07T14:16:59.702Z,6.28
2024-03-07T14:20:30.908Z,8.27
2024-03-07T14:23:34.907Z,35.55
2024-03-07T14:26:07.598Z,34.00
2024-03-07T14:28:53.703Z,35.17
2024-03-07T14:31:23.706Z,10.10
2024-03-07T14:34:07.504Z,12.05
2024-03-07T14:36:40.407Z,8.23
2024-03-07T14:39:07.912Z,10.00
2024-03-07T14:42:11.072Z,9.48
2024-03-07T14:44:43.986Z,9.07
2024-03-07T14:47:15.619Z,30.92
2024-03-07T14:49:42.952Z,30.17
2024-03-07T14:52:12.572Z,30.17
2024-03-07T14:54:39.656Z,29.50
2024-03-07T14:57:06.612Z,27.75
2024-03-07T14:59:33.751Z,27.20
2024-03-07T15:02:03.879Z,27.25
2024-03-07T15:04:34.096Z,27.40
2024-03-07T15:07:03.822Z,25.67
2024-03-07T15:09:31.571Z,25.00
2024-03-07T15:11:59.019Z,24.70
2024-03-07T15:14:33.415Z,24.10
2024-03-07T15:17:07.772Z,24.08
2024-03-07T15:19:36.255Z,23.65
2024-03-07T15:22:04.524Z,23.67
2024-03-07T15:24:31.766Z,24.00
2024-03-07T15:26:58.945Z,23.98
2024-03-07T15:29:25.810Z,22.58
2024-03-07T15:31:52.549Z,24.98
2024-03-07T15:34:19.234Z,22.35
2024-03-07T15:36:46.746Z,22.80
2024-03-07T15:39:27.787Z,22.02
2024-03-07T15:41:55.976Z,21.50
2024-03-07T15:44:22.956Z,19.60
2024-03-07T15:46:50.108Z,20.15
2024-03-07T15:49:18.441Z,21.45
2024-03-07T15:51:47.052Z,20.27
2024-03-07T15:54:18.691Z,19.67
2024-03-07T15:56:46.164Z,19.80
2024-03-07T15:59:12.842Z,18.67
2024-03-07T16:01:39.655Z,17.63
2024-03-07T16:04:08.241Z,17.95
2024-03-07T16:06:34.967Z,19.73
2024-03-07T16:09:01.732Z,18.05
2024-03-07T16:11:28.536Z,18.00
2024-03-07T16:13:55.301Z,17.10
2024-03-07T16:16:22.026Z,18.10
2024-03-07T16:18:48.717Z,18.08
2024-03-07T16:21:15.625Z,17.52
2024-03-07T16:23:42.714Z,17.95
2024-03-07T16:26:09.558Z,18.75
2024-03-07T16:28:36.249Z,18.80
2024-03-07T16:31:06.304Z,18.90
2024-03-07T16:33:34.967Z,19.38
2024-03-07T16:36:02.055Z,18.80
2024-03-07T16:38:29.172Z,18.30
2024-03-07T16:40:55.940Z,19.60
2024-03-07T16:43:26.044Z,19.98
2024-03-07T16:45:54.615Z,21.83
2024-03-07T16:48:21.851Z,19.38
2024-03-07T16:50:48.896Z,19.42
2024-03-07T16:53:17.622Z,20.38
2024-03-07T16:55:48.625Z,18.88
2024-03-07T16:58:18.091Z,20.20
2024-03-07T17:00:45.294Z,20.20
2024-03-07T17:03:14.566Z,20.42
2024-03-07T17:05:44.008Z,21.42
2024-03-07T17:08:17.611Z,20.35
2024-03-07T17:10:46.061Z,21.35
2024-03-07T17:13:14.967Z,20.73
2024-03-07T17:15:46.919Z,21.73
2024-03-07T17:18:17.276Z,21.60
2024-03-07T17:20:47.113Z,22.65
2024-03-07T17:23:16.976Z,21.52
2024-03-07T17:25:44.754Z,22.95
2024-03-07T17:28:11.515Z,22.67
2024-03-07T17:30:40.197Z,22.23
2024-03-07T17:33:08.553Z,23.48
2024-03-07T17:35:38.189Z,23.10
2024-03-07T17:38:05.278Z,6.82
2024-03-07T17:40:34.697Z,5.20
2024-03-07T17:43:04.678Z,22.58
2024-03-07T17:45:37.579Z,24.35
2024-03-07T17:48:07.775Z,26.20
2024-03-07T17:50:36.729Z,25.70
2024-03-07T17:53:09.678Z,27.42
2024-03-07T17:55:37.968Z,27.17
2024-03-07T17:58:05.248Z,28.23
2024-03-07T18:00:33.611Z,28.65
2024-03-07T18:03:09.597Z,7.32
2024-03-07T18:05:39.573Z,5.90
2024-03-07T18:08:27.435Z,27.83
2024-03-07T18:11:00.702Z,8.23
2024-03-07T18:13:27.676Z,7.72
2024-03-07T18:15:54.437Z,9.25
2024-03-07T18:18:25.366Z,29.27
2024-03-07T18:20:52.814Z,28.55
2024-03-07T18:23:19.834Z,27.88
2024-03-07T18:25:48.644Z,29.38
2024-03-07T18:28:21.413Z,31.77
2024-03-07T18:30:49.180Z,30.60
2024-03-07T18:33:16.088Z,30.85
2024-03-07T18:35:44.003Z,9.45
2024-03-07T18:38:10.996Z,7.60
2024-03-07T18:40:37.774Z,6.28
2024-03-07T18:43:09.092Z,7.85
2024-03-07T18:45:37.305Z,32.15
2024-03-07T18:48:09.146Z,31.65
2024-03-07T18:50:46.658Z,8.00
2024-03-07T18:53:16.535Z,6.78
2024-03-07T18:55:48.333Z,3.53
2024-03-07T18:58:17.112Z,8.10
2024-03-07T19:00:49.806Z,6.45
2024-03-07T19:03:19.817Z,9.20
2024-03-07T19:05:47.788Z,6.43
2024-03-07T19:08:21.103Z,5.45
2024-03-07T19:10:48.968Z,7.65
2024-03-07T19:13:17.684Z,6.78
2024-03-07T19:15:45.041Z,8.45
2024-03-07T19:18:14.536Z,6.50
2024-03-07T19:20:42.773Z,6.95
2024-03-07T19:23:11.850Z,25.05
2024-03-07T19:25:42.318Z,7.90
2024-03-07T19:28:16.507Z,8.48
2024-03-07T19:30:49.044Z,6.55
2024-03-07T19:33:16.833Z,7.07
2024-03-07T19:35:44.961Z,5.00
2024-03-07T19:38:11.741Z,6.18
2024-03-07T19:40:38.839Z,8.10
2024-03-07T19:43:07.862Z,5.97
2024-03-07T19:45:38.671Z,6.28
2024-03-07T19:48:06.145Z,6.68
2024-03-07T19:50:33.439Z,5.32
2024-03-07T19:53:03.048Z,6.80
2024-03-07T19:55:32.558Z,6.38
2024-03-07T19:58:00.041Z,7.10
2024-03-07T20:00:32.423Z,24.35
2024-03-07T20:03:04.579Z,22.83
2024-03-07T20:05:33.469Z,5.07
2024-03-07T20:08:00.584Z,3.92
2024-03-07T20:10:30.520Z,5.97
2024-03-07T20:12:58.190Z,3.60
2024-03-07T20:15:25.712Z,6.05
2024-03-07T20:17:54.986Z,6.15
2024-03-07T20:20:30.765Z,6.65
2024-03-07T20:22:58.323Z,6.90
2024-03-07T20:25:29.140Z,5.07
2024-03-07T20:27:59.236Z,5.63
2024-03-07T20:30:33.465Z,5.15
2024-03-07T20:33:00.858Z,5.68
2024-03-07T20:35:27.943Z,6.55
2024-03-07T20:37:55.993Z,5.15
2024-03-07T20:40:25.849Z,7.25
2024-03-07T20:42:55.350Z,5.53
2024-03-07T20:45:23.004Z,7.10
2024-03-07T20:47:50.600Z,5.35
2024-03-07T20:50:21.412Z,7.85
2024-03-07T20:52:55.538Z,3.50
2024-03-07T20:55:27.805Z,5.15
2024-03-07T20:57:57.277Z,6.57
2024-03-07T21:00:26.098Z,7.13
2024-03-07T21:02:54.172Z,6.63
2024-03-07T21:05:21.995Z,7.50
2024-03-07T21:07:52.044Z,7.32
2024-03-07T21:10:21.191Z,5.55
2024-03-07T21:12:48.444Z,6.38
2024-03-07T21:15:16.565Z,6.28
2024-03-07T21:17:43.892Z,5.65
2024-03-07T21:20:12.833Z,6.22
2024-03-07T21:22:44.542Z,4.60
2024-03-07T21:25:18.842Z,6.25
2024-03-07T21:27:47.665Z,4.07
2024-03-07T21:30:17.448Z,4.75
2024-03-07T21:32:45.860Z,4.10
2024-03-07T21:35:13.198Z,4.75
2024-03-07T21:37:43.997Z,6.25
2024-03-07T21:40:17.151Z,5.65
2024-03-07T21:42:44.782Z,7.13
2024-03-07T21:45:17.507Z,7.38
2024-03-07T21:47:48.186Z,5.38
2024-03-07T21:50:16.177Z,6.18
2024-03-07T21:52:49.381Z,5.22
2024-03-07T21:55:21.879Z,4.68
2024-03-07T21:57:55.249Z,5.70
2024-03-07T22:00:25.656Z,4.35
2024-03-07T22:02:59.551Z,6.72
2024-03-07T22:05:34.216Z,7.05
2024-03-07T22:08:01.986Z,4.30
2024-03-07T22:10:30.690Z,4.05
2024-03-07T22:12:58.013Z,3.05
2024-03-07T22:15:24.953Z,6.03
2024-03-07T22:17:54.350Z,3.42
2024-03-07T22:20:24.501Z,3.95
2024-03-07T22:22:53.097Z,19.80
2024-03-07T22:25:22.892Z,4.47
2024-03-07T22:27:50.490Z,5.72
2024-03-07T22:30:22.167Z,5.32
2024-03-07T22:32:49.649Z,5.65
2024-03-07T22:35:16.458Z,4.40
2024-03-07T22:37:52.634Z,3.38
2024-03-07T22:42:52.382Z,3.47
2024-03-07T22:45:19.360Z,7.00
2024-03-07T22:47:47.244Z,4.90
2024-03-07T22:50:26.220Z,3.63
2024-03-07T22:52:57.240Z,6.38
2024-03-07T22:55:24.398Z,4.50
2024-03-07T22:57:51.607Z,3.55
2024-03-07T23:00:29.548Z,5.15
2024-03-07T23:03:01.275Z,3.63
2024-03-07T23:05:29.958Z,5.07
2024-03-07T23:07:58.233Z,5.28
2024-03-07T23:10:25.229Z,3.55
2024-03-07T23:12:53.782Z,5.10
2024-03-07T23:15:25.441Z,3.45
2024-03-07T23:17:53.285Z,3.03
2024-03-07T23:20:23.088Z,2.50
2024-03-07T23:22:56.300Z,4.43
2024-03-07T23:25:24.157Z,6.82
2024-03-07T23:27:55.246Z,4.80
2024-03-07T23:30:23.655Z,6.18
2024-03-07T23:32:52.250Z,5.68
2024-03-07T23:35:19.768Z,4.20
2024-03-07T23:37:46.625Z,3.42
2024-03-07T23:40:14.805Z,4.55
2024-03-07T23:42:46.163Z,3.47
2024-03-07T23:45:14.128Z,5.57
2024-03-07T23:47:42.852Z,3.25
2024-03-07T23:50:14.215Z,3.70
2024-03-07T23:52:42.820Z,3.10
2024-03-07T23:55:12.400Z,2.90
2024-03-07T23:57:41.014Z,4.32
